Time;durP1;ratioP1;P1;durP2;ratioP2;P2;SDS_P1;SDS_P2;PMS_P1;PMS_P2;Temp;Humidity;BMP_temperature;BMP_pressure;BME280_temperature;BME280_humidity;BME280_pressure;Samples;Min_cycle;Max_cycle;Signal;HPM_P1;HPM_P2
2023/02/10 12:32:19;;;;;;;;;;;;;;;;;;5540748;23;19961;-92
2023/02/10 12:34:53;;;;;;;;;;;;;;;;;;4980125;28;19918;-92
2023/02/10 12:37:27;;;;;;;;;;;;;;;;;;4980957;28;19920;-94
2023/02/10 12:40:11;;;;;;;;;;;;;;;;;;4979794;28;19997;-94
2023/02/10 12:42:51;;;;;;;;;;;;;;;;;;4977204;28;19913;-93
2023/02/10 12:45:37;;;;;;;;;;;;;;;;;;4976928;28;19914;-92
2023/02/10 12:48:05;;;;;;;;;;;;;;;;;;4977845;28;19937;-92
2023/02/10 18:16:20;;;;;;;;;;;;;;;;;;4948395;28;19926;-77
2023/02/10 18:18:46;;;;;;;;;;;;;;;;;;4936675;29;20266;-79
2023/02/10 18:21:14;;;;;;;;;;;;;;;;;;4935236;29;20375;-79
2023/02/10 18:23:39;;;;;;;;;;;;;;;;;;4936723;29;19916;-76
2023/02/10 18:26:04;;;;;;;;;;;;;;;;;;4936960;29;20328;-77
2023/02/10 18:28:30;;;;;;;;;;;;;;;;;;4935406;29;19915;-81
2023/02/10 18:30:58;;;;;;;;;;;;;;;;;;4940657;29;19919;-84
2023/02/10 18:33:24;;;;;;;;;;;;;;;;;;4938048;29;19914;-85
2023/02/10 18:35:49;;;;;;;;;;;;;;;;;;4935476;29;19962;-84
2023/02/10 18:38:14;;;;;;;;;;;;;;;;;;4936707;29;19937;-83
2023/02/10 18:40:41;;;;;;;;;;;;;;;;;;4948038;29;19926;-84
2023/02/10 18:43:09;;;;;;;;;;;;;;;;;;4953289;28;20329;-83
2023/02/10 18:45:35;;;;;;;;;;;;;;;;;;4954830;28;19914;-83
2023/02/10 18:48:00;;;;;;;;;;;;;;;;;;4954859;28;20279;-84
2023/02/10 18:50:25;;;;;;;;;;;;;;;;;;4954619;28;20063;-84
2023/02/10 18:52:51;;;;;;;;;;;;;;;;;;4953597;29;19926;-82
2023/02/10 18:55:16;;;;;;;;;;;;;;;;;;4954455;28;19926;-84
2023/02/10 18:57:41;;;;;;;;;;;;;;;;;;4954617;28;20313;-83
2023/02/10 19:00:07;;;;;;;;;;;;;;;;;;4952961;29;19915;-81
2023/02/10 19:02:33;;;;;;;;;;;;;;;;;;4952799;28;19914;-83
2023/02/10 19:04:58;;;;;;;;;;;;;;;;;;4950845;28;19914;-83
2023/02/10 19:07:25;;;;;;;;;;;;;;;;;;4950710;29;19977;-84
2023/02/10 19:09:50;;;;;;;;;;;;;;;;;;4948505;28;19925;-84
2023/02/10 19:12:15;;;;;;;;;;;;;;;;;;4949931;28;19959;-84
2023/02/10 19:14:41;;;;;;;;;;;;;;;;;;4950094;29;19937;-83
2023/02/10 19:17:06;;;;;;;;;;;;;;;;;;4950347;28;19925;-82
2023/02/10 19:19:32;;;;;;;;;;;;;;;;;;4952970;29;20250;-83
2023/02/10 19:21:57;;;;;;;;;;;;;;;;;;4954843;28;19914;-82
2023/02/10 19:24:22;;;;;;;;;;;;;;;;;;4955432;29;19969;-82
2023/02/10 19:26:47;;;;;;;;;;;;;;;;;;4955719;29;19914;-81
2023/02/10 19:29:13;;;;;;;;;;;;;;;;;;4955439;29;20361;-83
2023/02/10 19:31:38;;;;;;;;;;;;;;;;;;4955572;29;19961;-83
2023/02/10 19:34:04;;;;;;;;;;;;;;;;;;4955318;29;19932;-80
2023/02/10 19:36:29;;;;;;;;;;;;;;;;;;4955486;28;19914;-81
2023/02/10 19:38:55;;;;;;;;;;;;;;;;;;4955435;28;19969;-84
2023/02/10 19:41:21;;;;;;;;;;;;;;;;;;4955598;28;19984;-80
2023/02/10 19:43:47;;;;;;;;;;;;;;;;;;4955425;29;19915;-80
2023/02/10 19:46:14;;;;;;;;;;;;;;;;;;4955375;29;19921;-84
2023/02/10 19:48:41;;;;;;;;;;;;;;;;;;4955634;28;19914;-84
2023/02/10 19:51:07;;;;;;;;;;;;;;;;;;4955552;28;20386;-84
2023/02/10 19:53:33;;;;;;;;;;;;;;;;;;4958641;28;19922;-84
2023/02/10 19:55:59;;;;;;;;;;;;;;;;;;4958615;29;19915;-81
2023/02/10 19:58:25;;;;;;;;;;;;;;;;;;4958667;28;19925;-83
2023/02/10 20:00:56;;;;;;;;;;;;;;;;;;4958836;28;19914;-81
2023/02/10 20:03:21;;;;;;;;;;;;;;;;;;4958460;28;20009;-83
2023/02/10 20:05:46;;;;;;;;;;;;;;;;;;4958597;29;19961;-80
2023/02/10 20:08:12;;;;;;;;;;;;;;;;;;4950005;29;20448;-79
2023/02/10 20:10:37;;;;;;;;;;;;;;;;;;4958968;29;20341;-80
2023/02/10 20:13:04;;;;;;;;;;;;;;;;;;4958209;29;19918;-80
2023/02/10 20:15:29;;;;;;;;;;;;;;;;;;4958284;28;20424;-82
2023/02/10 20:17:54;;;;;;;;;;;;;;;;;;4958391;28;19918;-80
2023/02/10 20:20:20;;;;;;;;;;;;;;;;;;4957205;29;19922;-80
2023/02/10 20:22:47;;;;;;;;;;;;;;;;;;4958002;28;19914;-79
2023/02/10 20:25:12;;;;;;;;;;;;;;;;;;4958576;28;19926;-82
2023/02/10 20:27:38;;;;;;;;;;;;;;;;;;4958271;29;20328;-82
2023/02/10 20:30:03;;;;;;;;;;;;;;;;;;4958326;29;20353;-83
2023/02/10 20:32:28;;;;;;;;;;;;;;;;;;4958092;28;19922;-83
2023/02/10 20:34:54;;;;;;;;;;;;;;;;;;4957842;29;19921;-80
2023/02/10 20:37:19;;;;;;;;;;;;;;;;;;4957970;28;19921;-82
2023/02/10 20:39:44;;;;;;;;;;;;;;;;;;4958115;28;19914;-82
2023/02/10 20:42:10;;;;;;;;;;;;;;;;;;4958059;28;20027;-85
2023/02/10 20:44:35;;;;;;;;;;;;;;;;;;4958008;29;19914;-83
2023/02/10 20:47:01;;;;;;;;;;;;;;;;;;4957919;29;19921;-80
2023/02/10 20:49:27;;;;;;;;;;;;;;;;;;4957805;28;19915;-80
2023/02/10 20:51:52;;;;;;;;;;;;;;;;;;4957814;28;20273;-83
2023/02/10 20:54:17;;;;;;;;;;;;;;;;;;4957734;29;19914;-82
2023/02/10 20:56:43;;;;;;;;;;;;;;;;;;4957857;28;20006;-82
2023/02/10 20:59:09;;;;;;;;;;;;;;;;;;4957438;28;20431;-83
2023/02/10 21:01:35;;;;;;;;;;;;;;;;;;4957482;29;19914;-83
2023/02/10 21:04:00;;;;;;;;;;;;;;;;;;4956988;28;20258;-81
2023/02/10 21:06:25;;;;;;;;;;;;;;;;;;4957296;28;20293;-81
2023/02/10 21:08:52;;;;;;;;;;;;;;;;;;4957231;28;19925;-83
2023/02/10 21:11:22;;;;;;;;;;;;;;;;;;4957677;28;19914;-79
2023/02/10 21:13:47;;;;;;;;;;;;;;;;;;4955447;28;19923;-83
2023/02/10 21:16:13;;;;;;;;;;;;;;;;;;4956898;28;20321;-80
2023/02/10 21:18:39;;;;;;;;;;;;;;;;;;4957328;28;19969;-81
2023/02/10 21:21:05;;;;;;;;;;;;;;;;;;4957094;28;19915;-82
2023/02/10 21:23:32;;;;;;;;;;;;;;;;;;4956357;28;20495;-83
2023/02/10 21:25:58;;;;;;;;;;;;;;;;;;4957419;28;19925;-84
2023/02/10 21:28:24;;;;;;;;;;;;;;;;;;4957051;28;19926;-84
2023/02/10 21:30:49;;;;;;;;;;;;;;;;;;4957210;28;19934;-83
2023/02/10 21:33:15;;;;;;;;;;;;;;;;;;4956770;28;20286;-82
2023/02/10 21:35:52;;;;;;;;;;;;;;;;;;4956681;28;19966;-83
2023/02/10 21:38:18;;;;;;;;;;;;;;;;;;4956140;28;19918;-83
2023/02/10 21:40:43;;;;;;;;;;;;;;;;;;4956783;28;20277;-84
2023/02/10 21:43:08;;;;;;;;;;;;;;;;;;4956668;28;19919;-83
2023/02/10 21:45:35;;;;;;;;;;;;;;;;;;4956742;28;19923;-83
2023/02/10 21:48:00;;;;;;;;;;;;;;;;;;4956622;28;19926;-83
2023/02/10 21:50:26;;;;;;;;;;;;;;;;;;4955400;28;19919;-82
2023/02/10 21:52:51;;;;;;;;;;;;;;;;;;4955106;28;19922;-82
2023/02/10 21:55:16;;;;;;;;;;;;;;;;;;4956610;28;19919;-83
2023/02/10 21:57:42;;;;;;;;;;;;;;;;;;4956535;28;20025;-82
2023/02/10 22:00:07;;;;;;;;;;;;;;;;;;4956575;28;19919;-81
2023/02/10 22:02:33;;;;;;;;;;;;;;;;;;4956294;28;20017;-82
2023/02/10 22:04:58;;;;;;;;;;;;;;;;;;4956591;28;19940;-82
2023/02/10 22:07:24;;;;;;;;;;;;;;;;;;4956413;28;19947;-83
2023/02/10 22:09:49;;;;;;;;;;;;;;;;;;4955093;28;20017;-80
2023/02/10 22:12:15;;;;;;;;;;;;;;;;;;4951218;29;20381;-80
2023/02/10 22:14:40;;;;;;;;;;;;;;;;;;4944893;29;20005;-79
2023/02/10 22:17:05;;;;;;;;;;;;;;;;;;4948837;29;19930;-82
2023/02/10 22:19:31;;;;;;;;;;;;;;;;;;4956214;29;19966;-82
2023/02/10 22:21:56;;;;;;;;;;;;;;;;;;4939089;28;19914;-83
2023/02/10 22:24:22;;;;;;;;;;;;;;;;;;4944968;28;19918;-82
2023/02/10 22:26:47;;;;;;;;;;;;;;;;;;4956266;28;19914;-79
2023/02/10 22:29:12;;;;;;;;;;;;;;;;;;4955033;29;19922;-82
2023/02/10 22:31:38;;;;;;;;;;;;;;;;;;4954883;28;19918;-82
2023/02/10 22:34:04;;;;;;;;;;;;;;;;;;4955869;28;20281;-82
2023/02/10 22:36:30;;;;;;;;;;;;;;;;;;4954721;28;19919;-82
2023/02/10 22:38:56;;;;;;;;;;;;;;;;;;4954717;28;19934;-84
